sensor_id;sensor_type;location;lat;lon;timestamp;temperature;humidity
14000;DHT22;7075;53.574;10.054;2023-06-22T00:01:59;23.20;99.90
14000;DHT22;7075;53.574;10.054;2023-06-22T00:04:24;23.20;99.90
14000;DHT22;7075;53.574;10.054;2023-06-22T00:10:12;23.10;99.90
14000;DHT22;7075;53.574;10.054;2023-06-22T00:12:38;23.00;99.90
14000;DHT22;7075;53.574;10.054;2023-06-22T00:15:04;23.00;99.90
14000;DHT22;7075;53.574;10.054;2023-06-22T00:17:29;22.90;99.90
14000;DHT22;7075;53.574;10.054;2023-06-22T00:19:55;22.90;99.90
14000;DHT22;7075;53.574;10.054;2023-06-22T00:22:23;22.80;99.90
14000;DHT22;7075;53.574;10.054;2023-06-22T00:25:03;22.70;99.90
14000;DHT22;7075;53.574;10.054;2023-06-22T00:27:30;22.80;99.90
14000;DHT22;7075;53.574;10.054;2023-06-22T00:29:55;22.70;99.90
14000;DHT22;7075;53.574;10.054;2023-06-22T00:32:22;22.70;99.90
14000;DHT22;7075;53.574;10.054;2023-06-22T00:34:48;22.70;99.90
14000;DHT22;7075;53.574;10.054;2023-06-22T00:37:13;22.60;99.90
14000;DHT22;7075;53.574;10.054;2023-06-22T00:39:40;22.60;99.90
14000;DHT22;7075;53.574;10.054;2023-06-22T00:42:07;22.50;99.90
14000;DHT22;7075;53.574;10.054;2023-06-22T00:44:33;22.50;99.90
14000;DHT22;7075;53.574;10.054;2023-06-22T00:46:58;22.60;99.90
14000;DHT22;7075;53.574;10.054;2023-06-22T00:49:26;22.60;99.90
14000;DHT22;7075;53.574;10.054;2023-06-22T00:51:52;22.60;99.90
14000;DHT22;7075;53.574;10.054;2023-06-22T00:54:18;22.60;99.90
14000;DHT22;7075;53.574;10.054;2023-06-22T00:56:51;22.60;99.90
14000;DHT22;7075;53.574;10.054;2023-06-22T00:59:18;22.60;99.90
14000;DHT22;7075;53.574;10.054;2023-06-22T01:01:44;22.60;99.90
14000;DHT22;7075;53.574;10.054;2023-06-22T01:04:10;22.60;99.90
14000;DHT22;7075;53.574;10.054;2023-06-22T01:06:45;22.50;99.90
14000;DHT22;7075;53.574;10.054;2023-06-22T01:09:15;22.30;99.90
14000;DHT22;7075;53.574;10.054;2023-06-22T01:11:47;22.30;99.90
14000;DHT22;7075;53.574;10.054;2023-06-22T01:17:43;22.30;99.90
14000;DHT22;7075;53.574;10.054;2023-06-22T01:20:10;22.30;99.90
14000;DHT22;7075;53.574;10.054;2023-06-22T01:25:45;22.20;99.90
14000;DHT22;7075;53.574;10.054;2023-06-22T01:28:30;22.10;99.90
14000;DHT22;7075;53.574;10.054;2023-06-22T01:30:58;22.10;99.90
14000;DHT22;7075;53.574;10.054;2023-06-22T01:33:37;22.10;99.90
14000;DHT22;7075;53.574;10.054;2023-06-22T01:36:10;22.20;99.90
14000;DHT22;7075;53.574;10.054;2023-06-22T01:38:37;22.20;99.90
14000;DHT22;7075;53.574;10.054;2023-06-22T01:41:04;22.10;99.90
14000;DHT22;7075;53.574;10.054;2023-06-22T01:43:30;22.00;99.90
14000;DHT22;7075;53.574;10.054;2023-06-22T01:45:57;22.00;99.90
14000;DHT22;7075;53.574;10.054;2023-06-22T01:48:23;22.00;99.90
14000;DHT22;7075;53.574;10.054;2023-06-22T01:50:49;22.00;99.90
14000;DHT22;7075;53.574;10.054;2023-06-22T01:53:15;22.00;99.90
14000;DHT22;7075;53.574;10.054;2023-06-22T01:55:40;21.80;99.90
14000;DHT22;7075;53.574;10.054;2023-06-22T01:58:06;21.80;99.90
14000;DHT22;7075;53.574;10.054;2023-06-22T02:00:34;21.80;99.90
14000;DHT22;7075;53.574;10.054;2023-06-22T02:03:06;21.70;99.90
14000;DHT22;7075;53.574;10.054;2023-06-22T02:05:52;21.70;99.90
14000;DHT22;7075;53.574;10.054;2023-06-22T02:08:25;21.80;99.90
14000;DHT22;7075;53.574;10.054;2023-06-22T02:10:56;21.80;99.90
14000;DHT22;7075;53.574;10.054;2023-06-22T02:13:24;21.80;99.90
14000;DHT22;7075;53.574;10.054;2023-06-22T02:15:50;21.70;99.90
14000;DHT22;7075;53.574;10.054;2023-06-22T02:18:16;21.70;99.90
14000;DHT22;7075;53.574;10.054;2023-06-22T02:20:42;21.60;99.90
14000;DHT22;7075;53.574;10.054;2023-06-22T02:23:07;21.60;99.90
14000;DHT22;7075;53.574;10.054;2023-06-22T02:25:33;21.50;99.90
14000;DHT22;7075;53.574;10.054;2023-06-22T02:27:59;21.50;99.90
14000;DHT22;7075;53.574;10.054;2023-06-22T02:30:41;21.50;99.90
14000;DHT22;7075;53.574;10.054;2023-06-22T02:33:07;21.50;99.90
14000;DHT22;7075;53.574;10.054;2023-06-22T02:35:32;21.50;99.90
14000;DHT22;7075;53.574;10.054;2023-06-22T02:38:01;21.50;99.90
14000;DHT22;7075;53.574;10.054;2023-06-22T02:40:30;21.50;99.90
14000;DHT22;7075;53.574;10.054;2023-06-22T02:42:58;21.30;99.90
14000;DHT22;7075;53.574;10.054;2023-06-22T02:45:27;21.20;99.90
14000;DHT22;7075;53.574;10.054;2023-06-22T02:47:52;21.20;99.90
14000;DHT22;7075;53.574;10.054;2023-06-22T02:50:18;21.20;99.90
14000;DHT22;7075;53.574;10.054;2023-06-22T02:52:44;21.20;99.90
14000;DHT22;7075;53.574;10.054;2023-06-22T02:55:09;21.20;99.90
14000;DHT22;7075;53.574;10.054;2023-06-22T02:57:36;21.20;99.90
14000;DHT22;7075;53.574;10.054;2023-06-22T03:00:04;21.20;99.90
14000;DHT22;7075;53.574;10.054;2023-06-22T03:02:43;21.20;99.90
14000;DHT22;7075;53.574;10.054;2023-06-22T03:05:09;21.20;99.90
14000;DHT22;7075;53.574;10.054;2023-06-22T03:07:41;21.20;99.90
14000;DHT22;7075;53.574;10.054;2023-06-22T03:10:08;21.20;99.90
14000;DHT22;7075;53.574;10.054;2023-06-22T03:12:35;21.10;99.90
14000;DHT22;7075;53.574;10.054;2023-06-22T03:15:00;21.10;99.90
14000;DHT22;7075;53.574;10.054;2023-06-22T03:17:33;21.10;99.90
14000;DHT22;7075;53.574;10.054;2023-06-22T03:19:59;21.10;99.90
14000;DHT22;7075;53.574;10.054;2023-06-22T03:22:25;21.10;99.90
14000;DHT22;7075;53.574;10.054;2023-06-22T03:27:59;21.00;99.90
14000;DHT22;7075;53.574;10.054;2023-06-22T03:30:26;21.00;99.90
14000;DHT22;7075;53.574;10.054;2023-06-22T03:33:01;21.00;99.90
14000;DHT22;7075;53.574;10.054;2023-06-22T03:35:26;21.00;99.90
14000;DHT22;7075;53.574;10.054;2023-06-22T03:37:52;20.90;99.90
14000;DHT22;7075;53.574;10.054;2023-06-22T03:40:18;20.90;99.90
14000;DHT22;7075;53.574;10.054;2023-06-22T03:42:43;20.90;99.90
14000;DHT22;7075;53.574;10.054;2023-06-22T03:45:09;20.90;99.90
14000;DHT22;7075;53.574;10.054;2023-06-22T03:47:35;20.90;99.90
14000;DHT22;7075;53.574;10.054;2023-06-22T03:50:01;20.90;99.90
14000;DHT22;7075;53.574;10.054;2023-06-22T03:52:29;20.90;99.90
14000;DHT22;7075;53.574;10.054;2023-06-22T03:54:54;20.90;99.90
14000;DHT22;7075;53.574;10.054;2023-06-22T03:57:20;20.90;99.90
14000;DHT22;7075;53.574;10.054;2023-06-22T03:59:46;20.90;99.90
14000;DHT22;7075;53.574;10.054;2023-06-22T04:02:13;20.90;99.90
14000;DHT22;7075;53.574;10.054;2023-06-22T04:04:41;20.80;99.90
14000;DHT22;7075;53.574;10.054;2023-06-22T04:07:07;20.80;99.90
14000;DHT22;7075;53.574;10.054;2023-06-22T04:09:33;20.80;99.90
14000;DHT22;7075;53.574;10.054;2023-06-22T04:11:59;20.90;99.90
14000;DHT22;7075;53.574;10.054;2023-06-22T04:14:25;20.90;99.90
14000;DHT22;7075;53.574;10.054;2023-06-22T04:16:51;20.90;99.90
14000;DHT22;7075;53.574;10.054;2023-06-22T04:19:17;20.90;99.90
14000;DHT22;7075;53.574;10.054;2023-06-22T04:21:44;20.90;99.90
14000;DHT22;7075;53.574;10.054;2023-06-22T04:24:13;20.90;99.90
14000;DHT22;7075;53.574;10.054;2023-06-22T04:26:38;20.90;99.90
14000;DHT22;7075;53.574;10.054;2023-06-22T04:29:07;20.80;99.90
14000;DHT22;7075;53.574;10.054;2023-06-22T04:31:34;20.70;99.90
14000;DHT22;7075;53.574;10.054;2023-06-22T04:34:06;20.70;99.90
14000;DHT22;7075;53.574;10.054;2023-06-22T04:36:36;20.70;99.90
14000;DHT22;7075;53.574;10.054;2023-06-22T04:39:23;20.70;99.90
14000;DHT22;7075;53.574;10.054;2023-06-22T04:41:49;20.70;99.90
14000;DHT22;7075;53.574;10.054;2023-06-22T04:44:18;20.70;99.90
14000;DHT22;7075;53.574;10.054;2023-06-22T04:46:50;20.70;99.90
14000;DHT22;7075;53.574;10.054;2023-06-22T04:49:19;20.70;99.90
14000;DHT22;7075;53.574;10.054;2023-06-22T04:51:45;20.70;99.90
14000;DHT22;7075;53.574;10.054;2023-06-22T04:54:10;20.70;99.90
14000;DHT22;7075;53.574;10.054;2023-06-22T04:56:37;20.70;99.90
14000;DHT22;7075;53.574;10.054;2023-06-22T04:59:12;20.80;99.90
14000;DHT22;7075;53.574;10.054;2023-06-22T05:01:38;20.80;99.90
14000;DHT22;7075;53.574;10.054;2023-06-22T05:04:04;20.90;99.90
14000;DHT22;7075;53.574;10.054;2023-06-22T05:06:31;20.90;99.90
14000;DHT22;7075;53.574;10.054;2023-06-22T05:08:57;20.90;99.90
14000;DHT22;7075;53.574;10.054;2023-06-22T05:11:31;20.90;99.90
14000;DHT22;7075;53.574;10.054;2023-06-22T05:13:56;20.90;99.90
14000;DHT22;7075;53.574;10.054;2023-06-22T05:16:23;20.90;99.90
14000;DHT22;7075;53.574;10.054;2023-06-22T05:18:54;20.90;99.90
14000;DHT22;7075;53.574;10.054;2023-06-22T05:21:33;20.90;99.90
14000;DHT22;7075;53.574;10.054;2023-06-22T05:23:59;20.90;99.90
14000;DHT22;7075;53.574;10.054;2023-06-22T05:26:34;20.90;99.90
14000;DHT22;7075;53.574;10.054;2023-06-22T05:29:01;20.90;99.90
14000;DHT22;7075;53.574;10.054;2023-06-22T05:31:27;20.90;99.90
14000;DHT22;7075;53.574;10.054;2023-06-22T05:33:54;20.90;99.90
14000;DHT22;7075;53.574;10.054;2023-06-22T05:36:21;20.90;99.90
14000;DHT22;7075;53.574;10.054;2023-06-22T05:38:51;20.90;99.90
14000;DHT22;7075;53.574;10.054;2023-06-22T05:41:17;20.90;99.90
14000;DHT22;7075;53.574;10.054;2023-06-22T05:43:42;21.00;99.90
14000;DHT22;7075;53.574;10.054;2023-06-22T05:46:08;21.00;99.90
14000;DHT22;7075;53.574;10.054;2023-06-22T05:48:33;21.00;99.90
14000;DHT22;7075;53.574;10.054;2023-06-22T05:50:59;20.90;99.90
14000;DHT22;7075;53.574;10.054;2023-06-22T05:53:25;21.00;99.90
14000;DHT22;7075;53.574;10.054;2023-06-22T05:55:51;21.00;99.90
14000;DHT22;7075;53.574;10.054;2023-06-22T05:58:16;21.00;99.90
14000;DHT22;7075;53.574;10.054;2023-06-22T06:00:42;21.00;99.90
14000;DHT22;7075;53.574;10.054;2023-06-22T06:03:09;21.00;99.90
14000;DHT22;7075;53.574;10.054;2023-06-22T06:05:35;21.10;99.90
14000;DHT22;7075;53.574;10.054;2023-06-22T06:08:03;21.10;99.90
14000;DHT22;7075;53.574;10.054;2023-06-22T06:10:30;21.10;99.90
14000;DHT22;7075;53.574;10.054;2023-06-22T06:12:56;21.20;99.90
14000;DHT22;7075;53.574;10.054;2023-06-22T06:15:22;21.20;99.90
14000;DHT22;7075;53.574;10.054;2023-06-22T06:17:49;21.20;99.90
14000;DHT22;7075;53.574;10.054;2023-06-22T06:20:15;21.20;99.90
14000;DHT22;7075;53.574;10.054;2023-06-22T06:22:41;21.20;99.90
14000;DHT22;7075;53.574;10.054;2023-06-22T06:25:09;21.20;99.90
14000;DHT22;7075;53.574;10.054;2023-06-22T06:27:34;21.30;99.90
14000;DHT22;7075;53.574;10.054;2023-06-22T06:30:00;21.30;99.90
14000;DHT22;7075;53.574;10.054;2023-06-22T06:32:26;21.40;99.90
14000;DHT22;7075;53.574;10.054;2023-06-22T06:34:52;21.40;99.90
14000;DHT22;7075;53.574;10.054;2023-06-22T06:37:18;21.50;99.90
14000;DHT22;7075;53.574;10.054;2023-06-22T06:39:44;21.40;99.90
14000;DHT22;7075;53.574;10.054;2023-06-22T06:42:10;21.50;99.90
14000;DHT22;7075;53.574;10.054;2023-06-22T06:44:36;21.50;99.90
14000;DHT22;7075;53.574;10.054;2023-06-22T06:47:04;21.50;99.90
14000;DHT22;7075;53.574;10.054;2023-06-22T06:49:29;21.60;99.90
14000;DHT22;7075;53.574;10.054;2023-06-22T06:51:55;21.60;99.90
14000;DHT22;7075;53.574;10.054;2023-06-22T06:54:21;21.60;99.90
14000;DHT22;7075;53.574;10.054;2023-06-22T06:56:47;21.60;99.90
14000;DHT22;7075;53.574;10.054;2023-06-22T06:59:14;21.60;99.90
14000;DHT22;7075;53.574;10.054;2023-06-22T07:01:41;21.70;99.90
14000;DHT22;7075;53.574;10.054;2023-06-22T07:04:07;21.70;99.90
14000;DHT22;7075;53.574;10.054;2023-06-22T07:06:32;21.70;99.90
14000;DHT22;7075;53.574;10.054;2023-06-22T07:08:59;21.70;99.90
14000;DHT22;7075;53.574;10.054;2023-06-22T07:11:25;21.70;99.90
14000;DHT22;7075;53.574;10.054;2023-06-22T07:13:51;21.70;99.90
14000;DHT22;7075;53.574;10.054;2023-06-22T07:16:17;21.70;99.90
14000;DHT22;7075;53.574;10.054;2023-06-22T07:18:43;21.70;99.90
14000;DHT22;7075;53.574;10.054;2023-06-22T07:21:09;21.70;99.90
14000;DHT22;7075;53.574;10.054;2023-06-22T07:23:35;21.70;99.90
14000;DHT22;7075;53.574;10.054;2023-06-22T07:26:01;21.80;99.90
14000;DHT22;7075;53.574;10.054;2023-06-22T07:28:27;21.80;99.90
14000;DHT22;7075;53.574;10.054;2023-06-22T07:30:57;21.80;99.90
14000;DHT22;7075;53.574;10.054;2023-06-22T07:33:22;21.90;99.90
14000;DHT22;7075;53.574;10.054;2023-06-22T07:35:49;21.90;99.90
14000;DHT22;7075;53.574;10.054;2023-06-22T07:38:17;21.90;99.90
14000;DHT22;7075;53.574;10.054;2023-06-22T07:40:42;22.00;99.90
14000;DHT22;7075;53.574;10.054;2023-06-22T07:43:09;22.00;99.90
14000;DHT22;7075;53.574;10.054;2023-06-22T07:45:34;22.00;99.90
14000;DHT22;7075;53.574;10.054;2023-06-22T07:48:01;22.10;99.90
14000;DHT22;7075;53.574;10.054;2023-06-22T07:50:27;22.10;99.90
14000;DHT22;7075;53.574;10.054;2023-06-22T07:52:53;22.10;99.90
14000;DHT22;7075;53.574;10.054;2023-06-22T07:55:19;22.20;99.90
14000;DHT22;7075;53.574;10.054;2023-06-22T07:57:48;22.20;99.90
14000;DHT22;7075;53.574;10.054;2023-06-22T08:00:21;22.20;99.90
14000;DHT22;7075;53.574;10.054;2023-06-22T08:02:47;22.30;99.90
14000;DHT22;7075;53.574;10.054;2023-06-22T08:05:14;22.30;99.90
14000;DHT22;7075;53.574;10.054;2023-06-22T08:07:41;22.30;99.90
14000;DHT22;7075;53.574;10.054;2023-06-22T08:10:11;22.40;99.90
14000;DHT22;7075;53.574;10.054;2023-06-22T08:12:37;22.40;99.90
14000;DHT22;7075;53.574;10.054;2023-06-22T08:15:10;22.40;99.90
14000;DHT22;7075;53.574;10.054;2023-06-22T08:17:40;22.50;99.90
14000;DHT22;7075;53.574;10.054;2023-06-22T08:20:07;22.50;99.90
14000;DHT22;7075;53.574;10.054;2023-06-22T08:22:37;22.60;99.90
14000;DHT22;7075;53.574;10.054;2023-06-22T08:25:05;22.60;99.90
14000;DHT22;7075;53.574;10.054;2023-06-22T08:27:31;22.60;99.90
14000;DHT22;7075;53.574;10.054;2023-06-22T08:29:59;22.70;99.90
14000;DHT22;7075;53.574;10.054;2023-06-22T08:32:30;22.70;99.90
14000;DHT22;7075;53.574;10.054;2023-06-22T08:34:58;22.70;99.90
14000;DHT22;7075;53.574;10.054;2023-06-22T08:37:24;22.80;99.90
14000;DHT22;7075;53.574;10.054;2023-06-22T08:39:58;22.80;99.90
14000;DHT22;7075;53.574;10.054;2023-06-22T08:42:25;22.80;99.90
14000;DHT22;7075;53.574;10.054;2023-06-22T08:44:51;22.90;99.90
14000;DHT22;7075;53.574;10.054;2023-06-22T08:47:17;22.90;99.90
14000;DHT22;7075;53.574;10.054;2023-06-22T08:49:43;22.90;99.90
14000;DHT22;7075;53.574;10.054;2023-06-22T08:52:09;22.90;99.90
14000;DHT22;7075;53.574;10.054;2023-06-22T08:54:34;23.00;99.90
14000;DHT22;7075;53.574;10.054;2023-06-22T08:57:01;23.00;99.90
14000;DHT22;7075;53.574;10.054;2023-06-22T08:59:32;23.10;99.90
14000;DHT22;7075;53.574;10.054;2023-06-22T09:01:57;23.10;99.90
14000;DHT22;7075;53.574;10.054;2023-06-22T09:04:24;23.10;99.90
14000;DHT22;7075;53.574;10.054;2023-06-22T09:06:50;23.10;99.90
14000;DHT22;7075;53.574;10.054;2023-06-22T09:09:17;23.20;99.90
14000;DHT22;7075;53.574;10.054;2023-06-22T09:11:49;23.30;99.90
14000;DHT22;7075;53.574;10.054;2023-06-22T09:14:15;23.20;99.90
14000;DHT22;7075;53.574;10.054;2023-06-22T09:16:41;23.30;99.90
14000;DHT22;7075;53.574;10.054;2023-06-22T09:19:06;23.30;99.90
14000;DHT22;7075;53.574;10.054;2023-06-22T09:21:32;23.40;99.90
14000;DHT22;7075;53.574;10.054;2023-06-22T09:23:59;23.40;99.90
14000;DHT22;7075;53.574;10.054;2023-06-22T09:26:24;23.40;99.90
14000;DHT22;7075;53.574;10.054;2023-06-22T09:28:51;23.50;99.90
14000;DHT22;7075;53.574;10.054;2023-06-22T09:31:18;23.40;99.90
14000;DHT22;7075;53.574;10.054;2023-06-22T09:33:56;23.50;99.90
14000;DHT22;7075;53.574;10.054;2023-06-22T09:36:22;23.50;99.90
14000;DHT22;7075;53.574;10.054;2023-06-22T09:38:48;23.60;99.90
14000;DHT22;7075;53.574;10.054;2023-06-22T09:41:23;23.60;99.90
14000;DHT22;7075;53.574;10.054;2023-06-22T09:43:48;23.70;99.90
14000;DHT22;7075;53.574;10.054;2023-06-22T09:46:17;23.70;99.90
14000;DHT22;7075;53.574;10.054;2023-06-22T09:48:43;23.70;99.90
14000;DHT22;7075;53.574;10.054;2023-06-22T09:51:09;23.80;99.90
14000;DHT22;7075;53.574;10.054;2023-06-22T09:53:41;23.80;99.90
14000;DHT22;7075;53.574;10.054;2023-06-22T09:56:06;23.80;99.90
14000;DHT22;7075;53.574;10.054;2023-06-22T09:58:32;23.90;99.90
14000;DHT22;7075;53.574;10.054;2023-06-22T10:00:59;23.90;99.90
14000;DHT22;7075;53.574;10.054;2023-06-22T10:03:25;24.00;99.90
14000;DHT22;7075;53.574;10.054;2023-06-22T10:05:51;24.00;99.90
14000;DHT22;7075;53.574;10.054;2023-06-22T10:08:17;24.00;99.90
14000;DHT22;7075;53.574;10.054;2023-06-22T10:10:52;24.00;99.90
14000;DHT22;7075;53.574;10.054;2023-06-22T10:13:17;24.10;99.90
14000;DHT22;7075;53.574;10.054;2023-06-22T10:15:45;24.10;99.90
14000;DHT22;7075;53.574;10.054;2023-06-22T10:18:21;24.20;99.90
14000;DHT22;7075;53.574;10.054;2023-06-22T10:20:48;24.20;99.90
14000;DHT22;7075;53.574;10.054;2023-06-22T10:23:20;24.20;99.90
14000;DHT22;7075;53.574;10.054;2023-06-22T10:25:53;24.30;99.90
14000;DHT22;7075;53.574;10.054;2023-06-22T10:28:22;24.40;99.90
14000;DHT22;7075;53.574;10.054;2023-06-22T10:30:48;24.40;99.90
14000;DHT22;7075;53.574;10.054;2023-06-22T10:33:13;24.50;99.90
14000;DHT22;7075;53.574;10.054;2023-06-22T10:35:39;24.50;99.90
14000;DHT22;7075;53.574;10.054;2023-06-22T10:38:05;24.50;99.90
14000;DHT22;7075;53.574;10.054;2023-06-22T10:40:33;24.50;99.90
14000;DHT22;7075;53.574;10.054;2023-06-22T10:43:01;24.60;99.90
14000;DHT22;7075;53.574;10.054;2023-06-22T10:45:27;24.60;99.90
14000;DHT22;7075;53.574;10.054;2023-06-22T10:48:02;24.60;99.90
14000;DHT22;7075;53.574;10.054;2023-06-22T10:50:27;24.70;99.90
14000;DHT22;7075;53.574;10.054;2023-06-22T10:53:00;24.70;99.90
14000;DHT22;7075;53.574;10.054;2023-06-22T10:55:25;24.70;99.90
14000;DHT22;7075;53.574;10.054;2023-06-22T10:57:51;24.80;99.90
14000;DHT22;7075;53.574;10.054;2023-06-22T11:00:17;24.80;99.90
14000;DHT22;7075;53.574;10.054;2023-06-22T11:02:44;24.80;99.90
14000;DHT22;7075;53.574;10.054;2023-06-22T11:05:10;24.90;99.90
14000;DHT22;7075;53.574;10.054;2023-06-22T11:07:37;24.90;99.90
14000;DHT22;7075;53.574;10.054;2023-06-22T11:10:03;25.00;99.90
14000;DHT22;7075;53.574;10.054;2023-06-22T11:12:28;25.00;99.90
14000;DHT22;7075;53.574;10.054;2023-06-22T11:14:54;25.10;99.90
14000;DHT22;7075;53.574;10.054;2023-06-22T11:17:22;25.10;99.90
14000;DHT22;7075;53.574;10.054;2023-06-22T11:19:50;25.20;99.90
14000;DHT22;7075;53.574;10.054;2023-06-22T11:22:22;25.30;99.90
14000;DHT22;7075;53.574;10.054;2023-06-22T11:24:47;25.30;99.90
14000;DHT22;7075;53.574;10.054;2023-06-22T11:27:13;25.40;99.90
14000;DHT22;7075;53.574;10.054;2023-06-22T11:29:38;25.50;99.90
14000;DHT22;7075;53.574;10.054;2023-06-22T11:32:06;25.50;99.90
14000;DHT22;7075;53.574;10.054;2023-06-22T11:34:41;25.60;99.90
14000;DHT22;7075;53.574;10.054;2023-06-22T11:37:10;25.60;99.90
14000;DHT22;7075;53.574;10.054;2023-06-22T11:39:36;25.70;99.90
14000;DHT22;7075;53.574;10.054;2023-06-22T11:42:02;25.80;99.90
14000;DHT22;7075;53.574;10.054;2023-06-22T11:44:28;25.80;99.90
14000;DHT22;7075;53.574;10.054;2023-06-22T11:47:00;25.80;99.90
14000;DHT22;7075;53.574;10.054;2023-06-22T11:49:30;25.80;99.90
14000;DHT22;7075;53.574;10.054;2023-06-22T11:51:56;25.80;99.90
14000;DHT22;7075;53.574;10.054;2023-06-22T11:54:21;25.80;99.90
14000;DHT22;7075;53.574;10.054;2023-06-22T11:56:47;25.80;99.90
14000;DHT22;7075;53.574;10.054;2023-06-22T11:59:14;25.80;99.90
14000;DHT22;7075;53.574;10.054;2023-06-22T12:01:40;25.90;99.90
14000;DHT22;7075;53.574;10.054;2023-06-22T12:04:05;25.90;99.90
14000;DHT22;7075;53.574;10.054;2023-06-22T12:06:38;26.00;99.90
14000;DHT22;7075;53.574;10.054;2023-06-22T12:09:07;26.00;99.90
14000;DHT22;7075;53.574;10.054;2023-06-22T12:11:32;26.10;99.90
14000;DHT22;7075;53.574;10.054;2023-06-22T12:13:58;26.20;99.90
14000;DHT22;7075;53.574;10.054;2023-06-22T12:16:27;26.20;99.90
14000;DHT22;7075;53.574;10.054;2023-06-22T12:18:53;26.30;99.90
14000;DHT22;7075;53.574;10.054;2023-06-22T12:21:19;26.40;99.90
14000;DHT22;7075;53.574;10.054;2023-06-22T12:23:44;26.40;99.90
14000;DHT22;7075;53.574;10.054;2023-06-22T12:26:10;26.50;99.90
14000;DHT22;7075;53.574;10.054;2023-06-22T12:28:36;26.60;99.90
14000;DHT22;7075;53.574;10.054;2023-06-22T12:31:02;26.70;99.90
14000;DHT22;7075;53.574;10.054;2023-06-22T12:33:29;26.70;99.90
14000;DHT22;7075;53.574;10.054;2023-06-22T12:35:56;26.80;99.90
14000;DHT22;7075;53.574;10.054;2023-06-22T12:38:21;26.80;99.90
14000;DHT22;7075;53.574;10.054;2023-06-22T12:40:48;26.90;99.90
14000;DHT22;7075;53.574;10.054;2023-06-22T12:43:15;26.80;99.90
14000;DHT22;7075;53.574;10.054;2023-06-22T12:45:40;26.90;99.90
14000;DHT22;7075;53.574;10.054;2023-06-22T12:48:07;26.90;99.90
14000;DHT22;7075;53.574;10.054;2023-06-22T12:50:43;26.90;99.90
14000;DHT22;7075;53.574;10.054;2023-06-22T12:53:12;27.00;99.90
14000;DHT22;7075;53.574;10.054;2023-06-22T12:55:39;27.00;99.90
14000;DHT22;7075;53.574;10.054;2023-06-22T12:58:05;27.10;99.90
14000;DHT22;7075;53.574;10.054;2023-06-22T13:00:31;27.10;99.90
14000;DHT22;7075;53.574;10.054;2023-06-22T13:02:57;27.10;99.90
14000;DHT22;7075;53.574;10.054;2023-06-22T13:05:22;27.20;99.90
14000;DHT22;7075;53.574;10.054;2023-06-22T13:07:48;27.20;99.90
14000;DHT22;7075;53.574;10.054;2023-06-22T13:10:20;27.30;99.90
14000;DHT22;7075;53.574;10.054;2023-06-22T13:12:46;27.30;99.90
14000;DHT22;7075;53.574;10.054;2023-06-22T13:15:11;27.30;99.90
14000;DHT22;7075;53.574;10.054;2023-06-22T13:17:37;27.40;99.90
14000;DHT22;7075;53.574;10.054;2023-06-22T13:20:05;27.40;99.90
14000;DHT22;7075;53.574;10.054;2023-06-22T13:22:34;27.50;99.90
14000;DHT22;7075;53.574;10.054;2023-06-22T13:25:17;27.60;99.90
14000;DHT22;7075;53.574;10.054;2023-06-22T13:27:45;27.70;99.90
14000;DHT22;7075;53.574;10.054;2023-06-22T13:30:19;27.70;99.90
14000;DHT22;7075;53.574;10.054;2023-06-22T13:32:44;27.70;99.90
14000;DHT22;7075;53.574;10.054;2023-06-22T13:35:11;27.70;99.90
14000;DHT22;7075;53.574;10.054;2023-06-22T13:37:38;27.70;99.90
14000;DHT22;7075;53.574;10.054;2023-06-22T13:40:14;27.70;99.90
14000;DHT22;7075;53.574;10.054;2023-06-22T13:42:40;27.60;99.90
14000;DHT22;7075;53.574;10.054;2023-06-22T13:45:07;27.60;99.90
14000;DHT22;7075;53.574;10.054;2023-06-22T13:47:40;27.60;99.90
14000;DHT22;7075;53.574;10.054;2023-06-22T13:50:06;27.60;99.90
14000;DHT22;7075;53.574;10.054;2023-06-22T13:52:32;27.60;99.90
14000;DHT22;7075;53.574;10.054;2023-06-22T13:54:57;27.60;99.90
14000;DHT22;7075;53.574;10.054;2023-06-22T13:57:23;27.60;99.90
14000;DHT22;7075;53.574;10.054;2023-06-22T13:59:49;27.60;99.90
14000;DHT22;7075;53.574;10.054;2023-06-22T14:02:14;27.60;99.90
14000;DHT22;7075;53.574;10.054;2023-06-22T14:04:40;27.60;99.90
14000;DHT22;7075;53.574;10.054;2023-06-22T14:07:05;27.60;99.90
14000;DHT22;7075;53.574;10.054;2023-06-22T14:09:31;27.60;99.90
14000;DHT22;7075;53.574;10.054;2023-06-22T14:12:05;27.70;99.90
14000;DHT22;7075;53.574;10.054;2023-06-22T14:14:32;27.70;99.90
14000;DHT22;7075;53.574;10.054;2023-06-22T14:16:58;27.70;99.90
14000;DHT22;7075;53.574;10.054;2023-06-22T14:19:24;27.70;99.90
14000;DHT22;7075;53.574;10.054;2023-06-22T14:21:51;27.60;99.90
14000;DHT22;7075;53.574;10.054;2023-06-22T14:24:17;27.60;99.90
14000;DHT22;7075;53.574;10.054;2023-06-22T14:26:43;27.60;99.90
14000;DHT22;7075;53.574;10.054;2023-06-22T14:29:10;27.60;99.90
14000;DHT22;7075;53.574;10.054;2023-06-22T14:31:37;27.50;99.90
14000;DHT22;7075;53.574;10.054;2023-06-22T14:34:02;27.50;99.90
14000;DHT22;7075;53.574;10.054;2023-06-22T14:36:36;27.50;99.90
14000;DHT22;7075;53.574;10.054;2023-06-22T14:39:03;27.50;99.90
14000;DHT22;7075;53.574;10.054;2023-06-22T14:41:30;27.50;99.90
14000;DHT22;7075;53.574;10.054;2023-06-22T14:43:56;27.50;99.90
14000;DHT22;7075;53.574;10.054;2023-06-22T14:46:22;27.40;99.90
14000;DHT22;7075;53.574;10.054;2023-06-22T14:48:47;27.40;99.90
14000;DHT22;7075;53.574;10.054;2023-06-22T14:51:15;27.40;99.90
14000;DHT22;7075;53.574;10.054;2023-06-22T14:53:43;27.40;99.90
14000;DHT22;7075;53.574;10.054;2023-06-22T14:56:09;27.30;99.90
14000;DHT22;7075;53.574;10.054;2023-06-22T14:58:40;27.30;99.90
14000;DHT22;7075;53.574;10.054;2023-06-22T15:01:06;27.30;99.90
14000;DHT22;7075;53.574;10.054;2023-06-22T15:03:41;27.30;99.90
14000;DHT22;7075;53.574;10.054;2023-06-22T15:06:08;27.20;99.90
14000;DHT22;7075;53.574;10.054;2023-06-22T15:08:33;27.20;99.90
14000;DHT22;7075;53.574;10.054;2023-06-22T15:10:59;27.20;99.90
14000;DHT22;7075;53.574;10.054;2023-06-22T15:13:29;27.20;99.90
14000;DHT22;7075;53.574;10.054;2023-06-22T15:15:58;27.20;99.90
14000;DHT22;7075;53.574;10.054;2023-06-22T15:18:25;27.20;99.90
14000;DHT22;7075;53.574;10.054;2023-06-22T15:20:52;27.10;99.90
14000;DHT22;7075;53.574;10.054;2023-06-22T15:23:19;27.10;99.90
14000;DHT22;7075;53.574;10.054;2023-06-22T15:25:52;27.20;99.90
14000;DHT22;7075;53.574;10.054;2023-06-22T15:28:21;27.10;99.90
14000;DHT22;7075;53.574;10.054;2023-06-22T15:30:50;27.10;99.90
14000;DHT22;7075;53.574;10.054;2023-06-22T15:33:22;27.10;99.90
14000;DHT22;7075;53.574;10.054;2023-06-22T15:35:50;27.10;99.90
14000;DHT22;7075;53.574;10.054;2023-06-22T15:38:18;27.10;99.90
14000;DHT22;7075;53.574;10.054;2023-06-22T15:40:45;27.10;99.90
14000;DHT22;7075;53.574;10.054;2023-06-22T15:43:11;27.10;99.90
14000;DHT22;7075;53.574;10.054;2023-06-22T15:45:39;27.10;99.90